createdAt,value
2022-09-07T00:01:00.711Z,0.50
2022-09-07T00:03:28.128Z,0.77
2022-09-07T00:05:55.031Z,0.30
2022-09-07T00:08:24.667Z,0.80
2022-09-07T00:10:55.470Z,0.40
2022-09-07T00:13:23.211Z,0.13
2022-09-07T00:15:50.157Z,0.40
2022-09-07T00:18:17.077Z,0.20
2022-09-07T00:20:44.158Z,0.20
2022-09-07T00:23:11.416Z,0.23
2022-09-07T00:25:39.533Z,0.27
2022-09-07T00:28:08.638Z,0.20
2022-09-07T00:30:40.254Z,0.93
2022-09-07T00:33:06.899Z,0.20
2022-09-07T00:35:33.518Z,0.30
2022-09-07T00:38:00.205Z,0.40
2022-09-07T00:40:26.966Z,0.20
2022-09-07T00:42:53.585Z,0.20
2022-09-07T00:45:21.483Z,0.37
2022-09-07T00:47:55.489Z,0.67
2022-09-07T00:50:28.351Z,0.20
2022-09-07T00:53:04.803Z,0.23
2022-09-07T00:55:32.562Z,0.33
2022-09-07T00:58:00.116Z,0.60
2022-09-07T01:00:27.638Z,0.30
2022-09-07T01:02:56.568Z,0.20
2022-09-07T01:05:42.923Z,0.30
2022-09-07T01:08:12.069Z,0.33
2022-09-07T01:10:39.230Z,0.30
2022-09-07T01:13:06.398Z,0.30
2022-09-07T01:16:03.026Z,0.20
2022-09-07T01:18:54.159Z,0.10
2022-09-07T01:21:26.073Z,0.20
2022-09-07T01:24:18.917Z,0.30
2022-09-07T01:26:45.543Z,0.20
2022-09-07T01:29:31.366Z,7.53
2022-09-07T01:32:13.721Z,0.30
2022-09-07T01:34:42.782Z,0.20
2022-09-07T01:37:23.737Z,0.30
2022-09-07T01:40:06.776Z,0.70
2022-09-07T01:42:48.807Z,0.20
2022-09-07T01:45:19.669Z,0.20
2022-09-07T01:47:50.731Z,1.70
2022-09-07T01:50:25.598Z,0.20
2022-09-07T01:53:09.474Z,0.20
2022-09-07T01:55:46.222Z,0.50
2022-09-07T01:58:26.121Z,0.70
2022-09-07T02:00:58.830Z,0.50
2022-09-07T02:03:30.301Z,0.20
2022-09-07T02:06:23.086Z,0.47
2022-09-07T02:08:56.006Z,0.20
2022-09-07T02:11:34.759Z,0.33
2022-09-07T02:14:06.810Z,0.70
2022-09-07T02:16:37.078Z,0.30
2022-09-07T02:19:13.184Z,0.63
2022-09-07T02:21:43.617Z,0.20
2022-09-07T02:24:21.401Z,0.60
2022-09-07T02:26:49.820Z,0.30
2022-09-07T02:29:16.454Z,0.93
2022-09-07T02:31:43.190Z,0.20
2022-09-07T02:34:10.284Z,0.20
2022-09-07T02:36:44.310Z,0.20
2022-09-07T02:39:10.962Z,0.47
2022-09-07T02:41:41.001Z,0.83
2022-09-07T02:44:12.318Z,0.20
2022-09-07T02:47:00.837Z,0.30
2022-09-07T02:49:36.707Z,0.20
2022-09-07T02:52:23.870Z,0.30
2022-09-07T02:55:27.093Z,0.30
2022-09-07T02:58:12.452Z,0.43
2022-09-07T03:01:00.861Z,0.47
2022-09-07T03:04:14.751Z,1.37
2022-09-07T03:06:58.289Z,0.83
2022-09-07T03:09:32.389Z,0.70
2022-09-07T03:12:03.198Z,1.70
2022-09-07T03:14:33.254Z,0.40
2022-09-07T03:17:01.587Z,4.63
2022-09-07T03:19:28.244Z,0.40
2022-09-07T03:21:54.886Z,0.40
2022-09-07T03:24:21.507Z,0.30
2022-09-07T03:26:49.614Z,0.80
2022-09-07T03:29:16.933Z,0.47
2022-09-07T03:31:44.114Z,0.60
2022-09-07T03:34:11.177Z,3.00
2022-09-07T03:36:38.424Z,0.60
2022-09-07T03:39:07.017Z,0.40
2022-09-07T03:41:34.183Z,0.47
2022-09-07T03:44:08.271Z,0.60
2022-09-07T03:46:35.242Z,7.07
2022-09-07T03:49:02.021Z,0.53
2022-09-07T03:51:28.670Z,0.50
2022-09-07T03:53:55.392Z,0.70
2022-09-07T03:56:24.129Z,0.53
2022-09-07T03:58:51.390Z,0.63
2022-09-07T04:01:21.087Z,0.83
2022-09-07T04:03:48.228Z,0.60
2022-09-07T04:06:15.790Z,0.67
2022-09-07T04:08:42.812Z,2.57
2022-09-07T04:11:13.325Z,0.73
2022-09-07T04:13:40.744Z,0.70
2022-09-07T04:16:22.969Z,1.10
2022-09-07T04:18:50.396Z,1.60
2022-09-07T04:21:18.584Z,1.37
2022-09-07T04:23:45.773Z,0.80
2022-09-07T04:26:18.303Z,0.70
2022-09-07T04:28:45.500Z,1.37
2022-09-07T04:31:13.739Z,0.90
2022-09-07T04:33:40.505Z,0.87
2022-09-07T04:36:07.560Z,0.87
2022-09-07T04:38:34.381Z,1.00
2022-09-07T04:41:08.139Z,0.90
2022-09-07T04:43:35.490Z,1.53
2022-09-07T04:46:19.692Z,0.70
2022-09-07T04:48:58.201Z,0.80
2022-09-07T04:51:28.439Z,1.03
2022-09-07T04:53:56.623Z,1.10
2022-09-07T04:56:23.552Z,0.70
2022-09-07T04:58:50.431Z,1.23
2022-09-07T05:01:19.939Z,0.97
2022-09-07T05:03:47.582Z,14.00
2022-09-07T05:06:15.415Z,2.20
2022-09-07T05:08:44.150Z,1.60
2022-09-07T05:11:12.671Z,2.23
2022-09-07T05:13:39.382Z,1.27
2022-09-07T05:16:17.704Z,1.50
2022-09-07T05:18:45.089Z,1.20
2022-09-07T05:21:17.554Z,1.80
2022-09-07T05:23:44.509Z,1.30
2022-09-07T05:26:12.531Z,1.17
2022-09-07T05:28:39.547Z,1.60
2022-09-07T05:36:40.065Z,1.30
2022-09-07T05:39:08.403Z,1.47
2022-09-07T05:41:35.430Z,1.60
2022-09-07T05:46:50.938Z,1.80
2022-09-07T05:49:17.658Z,7.80
2022-09-07T05:51:44.626Z,0.90
2022-09-07T05:54:11.898Z,2.63
2022-09-07T05:56:38.667Z,2.07
2022-09-07T05:59:05.490Z,0.87
2022-09-07T06:01:32.707Z,0.80
2022-09-07T06:04:00.209Z,1.00
2022-09-07T06:06:27.054Z,2.10
2022-09-07T06:08:54.293Z,0.70
2022-09-07T06:11:22.906Z,0.63
2022-09-07T06:13:50.275Z,0.60
2022-09-07T06:16:18.439Z,0.60
2022-09-07T06:18:47.201Z,0.60
2022-09-07T06:21:16.545Z,0.87
2022-09-07T06:23:44.225Z,1.03
2022-09-07T06:26:12.009Z,0.50
2022-09-07T06:28:40.739Z,0.70
2022-09-07T06:31:09.971Z,0.63
2022-09-07T06:33:37.255Z,0.50
2022-09-07T06:36:25.029Z,0.60
2022-09-07T06:38:52.011Z,1.83
2022-09-07T06:44:06.344Z,2.87
2022-09-07T06:49:19.801Z,2.30
2022-09-07T06:51:46.506Z,2.50
2022-09-07T06:57:02.693Z,3.70
2022-09-07T06:59:29.329Z,2.43
2022-09-07T07:01:55.947Z,2.40
2022-09-07T07:04:22.646Z,2.37
2022-09-07T07:06:49.270Z,8.83
2022-09-07T07:09:16.175Z,2.23
2022-09-07T07:11:44.623Z,2.53
2022-09-07T07:14:15.225Z,1.73
2022-09-07T07:16:42.177Z,1.20
2022-09-07T07:19:09.562Z,0.70
2022-09-07T07:21:55.258Z,0.50
2022-09-07T07:24:23.487Z,0.50
2022-09-07T07:26:50.182Z,0.40
2022-09-07T07:29:18.751Z,0.80
2022-09-07T07:31:46.859Z,0.60
2022-09-07T07:34:13.513Z,0.53
2022-09-07T07:36:40.169Z,0.40
2022-09-07T07:39:06.990Z,0.50
2022-09-07T07:44:20.903Z,0.50
2022-09-07T07:46:51.468Z,0.37
2022-09-07T07:49:18.566Z,0.50
2022-09-07T07:54:36.649Z,1.10
2022-09-07T07:57:06.622Z,3.83
2022-09-07T07:59:33.684Z,4.60
2022-09-07T08:02:04.677Z,5.93
2022-09-07T08:04:35.688Z,3.53
2022-09-07T08:07:09.280Z,3.97
2022-09-07T08:09:37.402Z,3.87
2022-09-07T08:12:04.194Z,3.60
2022-09-07T08:14:30.816Z,3.17
2022-09-07T08:16:57.418Z,4.00
2022-09-07T08:19:24.182Z,7.60
2022-09-07T08:21:51.000Z,3.37
2022-09-07T08:24:17.524Z,4.27
2022-09-07T08:26:44.068Z,3.40
2022-09-07T08:29:10.609Z,5.97
2022-09-07T08:31:37.530Z,2.90
2022-09-07T08:34:04.285Z,3.30
2022-09-07T08:36:31.966Z,1.93
2022-09-07T08:38:58.720Z,4.87
2022-09-07T08:41:47.015Z,4.40
2022-09-07T08:44:32.158Z,2.90
2022-09-07T08:47:00.614Z,1.53
2022-09-07T08:49:54.889Z,2.70
2022-09-07T08:52:28.386Z,2.37
2022-09-07T08:55:17.069Z,4.70
2022-09-07T08:58:14.593Z,5.20
2022-09-07T09:01:30.734Z,9.70
2022-09-07T09:06:40.466Z,3.53
2022-09-07T09:09:07.109Z,4.43
2022-09-07T09:12:17.813Z,3.93
2022-09-07T09:15:07.426Z,5.20
2022-09-07T09:17:43.238Z,5.70
2022-09-07T09:20:25.917Z,3.77
2022-09-07T09:23:00.666Z,5.80
2022-09-07T09:25:33.694Z,4.43
2022-09-07T09:28:00.508Z,3.93
2022-09-07T09:30:28.120Z,5.90
2022-09-07T09:33:24.041Z,5.87
2022-09-07T09:35:53.723Z,4.80
2022-09-07T09:38:29.033Z,5.53
2022-09-07T09:40:57.790Z,5.37
2022-09-07T09:43:34.722Z,5.27
2022-09-07T09:46:17.431Z,5.77
2022-09-07T09:48:52.388Z,5.33
2022-09-07T09:54:24.211Z,6.27
2022-09-07T09:56:51.346Z,9.90
2022-09-07T10:05:40.718Z,6.03
2022-09-07T10:08:22.350Z,6.35
2022-09-07T10:11:15.852Z,5.57
2022-09-07T10:13:55.085Z,6.95
2022-09-07T10:16:40.420Z,5.45
2022-09-07T10:19:24.194Z,4.82
2022-09-07T10:21:58.987Z,4.82
2022-09-07T10:24:27.771Z,3.75
2022-09-07T10:26:54.725Z,5.78
2022-09-07T10:29:30.241Z,4.20
2022-09-07T10:32:06.363Z,5.00
2022-09-07T10:35:02.050Z,3.83
2022-09-07T10:37:51.108Z,5.00
2022-09-07T10:40:58.234Z,3.92
2022-09-07T10:43:37.001Z,5.25
2022-09-07T10:49:29.924Z,5.32
2022-09-07T10:52:08.993Z,3.03
2022-09-07T10:54:52.312Z,2.70
2022-09-07T10:57:35.595Z,3.05
2022-09-07T11:00:22.675Z,5.78
2022-09-07T11:06:07.957Z,4.72
2022-09-07T11:09:27.526Z,2.95
2022-09-07T11:12:07.947Z,3.40
2022-09-07T11:15:02.083Z,2.65
2022-09-07T11:17:30.021Z,5.53
2022-09-07T11:20:16.404Z,3.05
2022-09-07T11:23:01.998Z,3.70
2022-09-07T11:25:36.839Z,3.90
2022-09-07T11:28:17.223Z,5.15
2022-09-07T11:30:49.956Z,5.70
2022-09-07T11:33:38.652Z,14.75
2022-09-07T11:36:14.286Z,3.50
2022-09-07T11:38:50.111Z,3.75
2022-09-07T11:41:29.965Z,8.60
2022-09-07T11:44:17.092Z,3.92
2022-09-07T11:46:47.397Z,4.32
2022-09-07T11:49:25.844Z,2.83
2022-09-07T11:52:24.152Z,4.05
2022-09-07T11:54:57.821Z,2.92
2022-09-07T11:57:43.430Z,3.78
2022-09-07T12:00:38.959Z,3.45
2022-09-07T12:03:36.802Z,2.47
2022-09-07T12:06:20.394Z,4.65
2022-09-07T12:09:12.239Z,5.63
2022-09-07T12:12:05.786Z,2.83
2022-09-07T12:14:51.522Z,3.78
2022-09-07T12:17:20.926Z,3.53
2022-09-07T12:20:10.038Z,5.50
2022-09-07T12:22:37.787Z,4.55
2022-09-07T12:25:17.781Z,4.97
2022-09-07T12:27:44.527Z,6.65
2022-09-07T12:30:14.087Z,4.32
2022-09-07T12:32:55.331Z,3.30
2022-09-07T12:35:31.601Z,3.40
2022-09-07T12:38:19.530Z,4.40
2022-09-07T12:40:59.754Z,6.22
2022-09-07T12:43:44.970Z,8.25
2022-09-07T12:46:38.018Z,3.72
2022-09-07T12:49:33.559Z,4.50
2022-09-07T12:52:16.092Z,3.75
2022-09-07T12:55:23.358Z,6.53
2022-09-07T12:57:50.526Z,6.70
2022-09-07T13:00:46.546Z,3.65
2022-09-07T13:03:54.413Z,7.90
2022-09-07T13:07:01.621Z,5.07
2022-09-07T13:09:36.854Z,5.22
2022-09-07T13:15:33.445Z,5.05
2022-09-07T13:18:00.588Z,4.50
2022-09-07T13:20:34.838Z,2.80
2022-09-07T13:23:25.585Z,5.00
2022-09-07T13:25:56.732Z,3.78
2022-09-07T13:28:37.048Z,7.40
2022-09-07T13:31:20.752Z,4.18
2022-09-07T13:33:50.983Z,9.85
2022-09-07T13:36:36.578Z,4.00
2022-09-07T13:39:08.464Z,4.50
2022-09-07T13:41:41.089Z,2.78
2022-09-07T13:44:26.370Z,4.65
2022-09-07T13:47:29.758Z,4.55
2022-09-07T13:50:36.134Z,4.97
2022-09-07T13:53:14.719Z,4.18
2022-09-07T13:56:04.282Z,2.58
2022-09-07T13:58:41.796Z,4.25
2022-09-07T14:01:28.950Z,3.58
2022-09-07T14:04:06.411Z,4.57
2022-09-07T14:06:38.145Z,2.65
2022-09-07T14:09:13.303Z,4.25
2022-09-07T14:11:48.939Z,2.65
2022-09-07T14:14:18.359Z,1.80
2022-09-07T14:16:48.908Z,3.70
2022-09-07T14:19:24.050Z,3.45
2022-09-07T14:22:12.358Z,3.08
2022-09-07T14:24:55.424Z,4.85
2022-09-07T14:27:42.685Z,1.55
2022-09-07T14:30:24.704Z,3.90
2022-09-07T14:32:54.687Z,2.05
2022-09-07T14:35:24.571Z,3.50
2022-09-07T14:37:51.653Z,1.88
2022-09-07T14:40:24.162Z,4.15
2022-09-07T14:42:53.277Z,2.85
2022-09-07T14:45:22.897Z,2.42
2022-09-07T14:47:52.381Z,4.43
2022-09-07T14:50:25.806Z,3.50
2022-09-07T14:55:44.497Z,2.45
2022-09-07T14:58:32.382Z,7.57
2022-09-07T15:04:01.725Z,4.03
2022-09-07T15:09:37.967Z,2.38
2022-09-07T15:12:18.779Z,1.70
2022-09-07T15:14:45.824Z,2.97
2022-09-07T15:20:31.615Z,2.50
2022-09-07T15:22:58.790Z,2.25
2022-09-07T15:25:25.394Z,3.90
2022-09-07T15:27:53.381Z,6.22
2022-09-07T15:30:20.308Z,2.53
2022-09-07T15:32:46.901Z,4.65
2022-09-07T15:35:13.608Z,3.22
2022-09-07T15:40:28.283Z,5.38
2022-09-07T15:43:11.443Z,3.22
2022-09-07T15:45:44.953Z,8.00
2022-09-07T15:48:16.533Z,4.05
2022-09-07T15:50:43.369Z,5.47
2022-09-07T15:54:07.436Z,2.22
2022-09-07T15:55:56.806Z,7.22
2022-09-07T15:58:23.434Z,3.45
2022-09-07T16:01:51.412Z,5.85
2022-09-07T16:03:37.958Z,8.00
2022-09-07T16:06:13.779Z,2.80
2022-09-07T16:08:41.024Z,2.13
2022-09-07T16:11:26.286Z,4.03
2022-09-07T16:14:02.156Z,5.60
2022-09-07T16:19:20.487Z,3.45
2022-09-07T16:21:47.619Z,4.63
2022-09-07T16:24:14.205Z,3.15
2022-09-07T16:26:40.782Z,4.35
2022-09-07T16:29:07.865Z,5.18
2022-09-07T16:31:35.347Z,4.78
2022-09-07T16:34:03.578Z,4.22
2022-09-07T16:36:30.636Z,3.55
2022-09-07T16:39:00.247Z,3.10
2022-09-07T16:41:29.252Z,6.07
2022-09-07T16:43:56.607Z,5.25
2022-09-07T16:46:27.115Z,4.07
2022-09-07T16:48:54.168Z,3.55
2022-09-07T16:51:22.665Z,3.80
2022-09-07T16:53:51.710Z,2.17
2022-09-07T16:56:20.147Z,3.17
2022-09-07T16:58:49.469Z,3.03
2022-09-07T17:01:19.057Z,2.80
2022-09-07T17:03:46.009Z,4.00
2022-09-07T17:06:14.084Z,2.67
2022-09-07T17:08:41.194Z,3.17
2022-09-07T17:11:14.112Z,5.75
2022-09-07T17:13:42.030Z,3.10
2022-09-07T17:16:10.224Z,5.30
2022-09-07T17:21:24.458Z,3.33
2022-09-07T17:23:55.533Z,4.60
2022-09-07T17:26:23.653Z,4.75
2022-09-07T17:28:55.130Z,5.18
2022-09-07T17:34:18.157Z,7.15
2022-09-07T17:36:44.961Z,3.28
2022-09-07T17:39:16.886Z,4.82
2022-09-07T17:41:44.965Z,4.75
2022-09-07T17:44:11.868Z,7.57
2022-09-07T17:46:38.630Z,2.42
2022-09-07T17:49:07.791Z,5.78
2022-09-07T17:51:35.358Z,6.85
2022-09-07T17:54:09.675Z,4.53
2022-09-07T17:56:37.309Z,4.22
2022-09-07T18:01:51.248Z,7.07
2022-09-07T18:04:17.888Z,8.17
2022-09-07T18:06:44.482Z,5.27
2022-09-07T18:09:11.593Z,3.73
2022-09-07T18:11:46.842Z,5.07
2022-09-07T18:14:14.720Z,2.80
2022-09-07T18:16:42.178Z,4.30
2022-09-07T18:19:08.881Z,7.23
2022-09-07T18:21:37.638Z,8.13
2022-09-07T18:24:07.547Z,6.17
2022-09-07T18:26:38.992Z,9.20
2022-09-07T18:29:13.120Z,7.37
2022-09-07T18:31:53.044Z,4.80
2022-09-07T18:34:20.700Z,9.67
2022-09-07T18:36:47.457Z,8.63
2022-09-07T18:39:14.157Z,7.90
2022-09-07T18:41:41.932Z,8.50
2022-09-07T18:45:27.179Z,6.73
2022-09-07T18:46:55.347Z,8.40
2022-09-07T18:49:21.944Z,6.50
2022-09-07T18:54:35.374Z,8.47
2022-09-07T18:57:01.930Z,5.80
2022-09-07T18:59:29.863Z,8.10
2022-09-07T19:02:03.057Z,19.67
2022-09-07T19:07:17.660Z,11.43
2022-09-07T19:09:44.264Z,8.47
2022-09-07T19:12:10.894Z,9.20
2022-09-07T19:14:37.537Z,11.30
2022-09-07T19:17:04.492Z,9.73
2022-09-07T19:19:32.805Z,10.73
2022-09-07T19:22:01.621Z,13.00
2022-09-07T19:24:28.627Z,5.80
2022-09-07T19:27:00.102Z,6.20
2022-09-07T19:29:27.608Z,6.23
2022-09-07T19:32:11.767Z,5.03
2022-09-07T19:34:41.138Z,11.97
2022-09-07T19:37:09.451Z,6.33
2022-09-07T19:39:36.162Z,9.47
2022-09-07T19:42:04.514Z,6.93
2022-09-07T19:44:31.942Z,12.03
2022-09-07T19:46:59.980Z,11.27
2022-09-07T19:49:26.919Z,9.47
2022-09-07T19:51:53.432Z,10.30
2022-09-07T19:54:20.003Z,12.67
2022-09-07T19:56:46.575Z,7.97
2022-09-07T19:59:13.746Z,8.30
2022-09-07T20:01:43.638Z,9.60
2022-09-07T20:04:16.016Z,11.20
2022-09-07T20:06:46.372Z,6.57
2022-09-07T20:09:15.722Z,10.63
2022-09-07T20:11:46.371Z,8.93
2022-09-07T20:14:14.490Z,7.03
2022-09-07T20:16:41.591Z,8.30
2022-09-07T20:19:10.636Z,9.60
2022-09-07T20:21:37.199Z,8.63
2022-09-07T20:24:04.249Z,11.23
2022-09-07T20:26:32.183Z,8.23
2022-09-07T20:29:16.684Z,6.70
2022-09-07T20:31:46.866Z,8.37
2022-09-07T20:34:13.611Z,5.50
2022-09-07T20:36:40.202Z,10.63
2022-09-07T20:39:06.826Z,7.73
2022-09-07T20:41:34.199Z,7.33
2022-09-07T20:44:03.737Z,9.77
2022-09-07T20:46:31.467Z,6.57
2022-09-07T20:48:58.532Z,11.13
2022-09-07T20:51:25.675Z,5.77
2022-09-07T20:53:52.639Z,6.67
2022-09-07T20:56:21.601Z,7.20
2022-09-07T20:58:53.186Z,8.23
2022-09-07T21:01:21.061Z,6.47
2022-09-07T21:03:49.712Z,7.17
2022-09-07T21:06:18.281Z,8.50
2022-09-07T21:08:45.878Z,9.57
2022-09-07T21:11:18.612Z,5.07
2022-09-07T21:13:46.572Z,9.87
2022-09-07T21:16:15.904Z,5.43
2022-09-07T21:18:44.253Z,9.70
2022-09-07T21:21:20.389Z,8.53
2022-09-07T21:23:47.877Z,8.10
2022-09-07T21:26:14.981Z,7.23
2022-09-07T21:28:41.525Z,7.73
2022-09-07T21:31:09.291Z,7.40
2022-09-07T21:33:37.574Z,5.10
2022-09-07T21:36:13.565Z,7.80
2022-09-07T21:38:41.507Z,4.27
2022-09-07T21:41:13.602Z,6.03
2022-09-07T21:43:40.929Z,6.60
2022-09-07T21:46:13.533Z,6.93
2022-09-07T21:48:40.499Z,7.43
2022-09-07T21:51:07.619Z,6.87
2022-09-07T21:53:34.944Z,7.07
2022-09-07T21:56:05.061Z,8.50
2022-09-07T21:58:32.401Z,6.20
2022-09-07T22:01:03.661Z,7.37
2022-09-07T22:03:30.321Z,5.83
2022-09-07T22:06:01.053Z,7.33
2022-09-07T22:08:27.582Z,9.63
2022-09-07T22:10:54.106Z,8.93
2022-09-07T22:13:20.970Z,9.90
2022-09-07T22:15:48.311Z,9.37
2022-09-07T22:18:14.867Z,8.27
2022-09-07T22:20:41.395Z,8.97
2022-09-07T22:23:08.018Z,8.23
2022-09-07T22:25:34.887Z,7.97
2022-09-07T22:28:01.619Z,9.03
2022-09-07T22:30:28.137Z,6.03
2022-09-07T22:32:54.834Z,7.90
2022-09-07T22:35:23.550Z,5.13
2022-09-07T22:37:50.106Z,6.53
2022-09-07T22:40:16.756Z,12.20
2022-09-07T22:42:43.363Z,6.03
2022-09-07T22:45:10.380Z,8.23
2022-09-07T22:47:36.931Z,6.87
2022-09-07T22:50:03.742Z,8.90
2022-09-07T22:52:30.284Z,8.83
2022-09-07T22:54:56.815Z,11.73
2022-09-07T22:57:23.434Z,8.97
2022-09-07T22:59:50.043Z,10.63
2022-09-07T23:02:16.573Z,10.33
2022-09-07T23:04:43.205Z,8.23
2022-09-07T23:07:09.875Z,7.23
2022-09-07T23:09:36.424Z,10.00
2022-09-07T23:12:03.127Z,5.93
2022-09-07T23:14:29.691Z,9.70
2022-09-07T23:16:56.226Z,8.17
2022-09-07T23:19:22.935Z,7.40
2022-09-07T23:21:49.670Z,15.13
2022-09-07T23:24:18.159Z,11.30
2022-09-07T23:26:46.503Z,10.17
2022-09-07T23:29:14.380Z,13.83
2022-09-07T23:31:41.656Z,10.17
2022-09-07T23:34:09.281Z,12.03
2022-09-07T23:36:36.637Z,7.03
2022-09-07T23:39:03.296Z,7.47
2022-09-07T23:41:30.113Z,6.53
2022-09-07T23:43:57.574Z,6.07
2022-09-07T23:46:24.436Z,6.83
2022-09-07T23:48:51.073Z,7.97
2022-09-07T23:51:23.556Z,9.70
2022-09-07T23:53:51.958Z,9.00
2022-09-07T23:56:18.494Z,8.30
2022-09-07T23:58:45.037Z,6.97
